Portada
METAR-TAF:

METAR-TAF

Aeroports :

São Paulo, São Paulo, Brasil

latitud: 23-31S, longitud: 046-38W, altitud: 722 m

Observació

L'informe es va fer fa 46 minuts, a les 22:00 UTC
Vent 5 kt del Sud/Sud-Est
Temperatura 21°C
Humitat 83%
Pressió 1015 hPa
Visibilitat: 5000 m
Cel ennuvolat a una alçada de 1300 ft
Cel ennuvolat a una alçada de 1500 ft
pluja, boirina

METAR: SBMT 132200Z 16005KT 5000 -RA BR BKN013 BKN015 21/18 Q1015

Hora: 20:46 (22:46 UTC)


TAF: manca

Observacions i pronòstics meteorològics de més de 4000 aeroports (METAR i TAF).

Les estacions disponibles són els punts grocs i vermells al mapa.

Posi el ratolí al punt desitjat per veure el nom de l'estació.

Feu clic per veure les observacions i els pronòstics meteorològics.

Per canviar el mapa: feu clic els botons verds amb una creu de color negre per apropar; al botó verd amb un guió per allunyar la imatge; o en les fletxes verdes per a mapes adjacents.


METAR-TAF: